createdAt,value
2018-03-26T00:00:29.825Z,52.00
2018-03-26T00:01:29.801Z,51.70
2018-03-26T00:02:29.801Z,51.80
2018-03-26T00:03:29.794Z,51.80
2018-03-26T00:04:29.782Z,52.00
2018-03-26T00:05:29.764Z,51.80
2018-03-26T00:06:29.764Z,52.60
2018-03-26T00:07:29.750Z,53.10
2018-03-26T00:08:29.758Z,52.70
2018-03-26T00:09:29.742Z,53.00
2018-03-26T00:10:29.717Z,53.90
2018-03-26T00:11:29.721Z,51.60
2018-03-26T00:12:29.698Z,52.80
2018-03-26T00:13:29.700Z,52.50
2018-03-26T00:14:29.696Z,52.90
2018-03-26T00:15:29.672Z,53.70
2018-03-26T00:16:29.663Z,53.10
2018-03-26T00:17:29.655Z,52.70
2018-03-26T00:18:29.644Z,54.50
2018-03-26T00:19:29.647Z,52.20
2018-03-26T00:20:29.626Z,52.20
2018-03-26T00:21:29.628Z,54.30
2018-03-26T00:22:29.618Z,53.50
2018-03-26T00:23:29.600Z,53.60
2018-03-26T00:24:29.588Z,53.10
2018-03-26T00:25:29.593Z,55.10
2018-03-26T00:26:29.573Z,54.40
2018-03-26T00:27:29.563Z,55.00
2018-03-26T00:28:29.564Z,54.10
2018-03-26T00:29:29.554Z,55.90
2018-03-26T00:30:29.547Z,53.80
2018-03-26T00:31:29.528Z,53.10
2018-03-26T00:32:29.536Z,55.20
2018-03-26T00:33:29.507Z,54.60
2018-03-26T00:34:29.499Z,54.30
2018-03-26T00:35:29.489Z,55.00
2018-03-26T00:36:29.490Z,53.40
2018-03-26T00:37:29.490Z,54.00
2018-03-26T00:38:29.461Z,53.70
2018-03-26T00:39:29.452Z,55.50
2018-03-26T00:40:29.443Z,53.60
2018-03-26T00:41:29.443Z,55.00
2018-03-26T00:42:29.429Z,54.60
2018-03-26T00:43:29.428Z,55.30
2018-03-26T00:44:29.418Z,52.80
2018-03-26T00:45:29.398Z,54.30
2018-03-26T00:46:29.390Z,53.50
2018-03-26T00:47:29.380Z,54.00
2018-03-26T00:48:29.369Z,54.30
2018-03-26T00:49:29.362Z,53.80
2018-03-26T00:50:29.362Z,53.90
2018-03-26T00:51:29.381Z,53.30
2018-03-26T00:52:29.346Z,53.80
2018-03-26T00:53:29.324Z,55.40
2018-03-26T00:54:29.325Z,52.90
2018-03-26T00:55:29.306Z,53.90
2018-03-26T00:56:29.295Z,52.00
2018-03-26T00:57:29.287Z,54.10
2018-03-26T00:58:29.282Z,53.50
2018-03-26T00:59:29.267Z,53.50
2018-03-26T01:00:29.256Z,54.40
2018-03-26T01:01:29.251Z,53.30
2018-03-26T01:02:29.252Z,54.00
2018-03-26T01:03:29.228Z,52.00
2018-03-26T01:04:29.244Z,52.60
2018-03-26T01:05:29.225Z,51.50
2018-03-26T01:06:29.207Z,52.10
2018-03-26T01:07:29.192Z,52.80
2018-03-26T01:08:29.183Z,51.20
2018-03-26T01:09:29.175Z,51.50
2018-03-26T01:10:29.163Z,51.20
2018-03-26T01:11:29.157Z,52.60
2018-03-26T01:12:29.156Z,51.20
2018-03-26T01:13:29.136Z,51.20
2018-03-26T01:14:29.138Z,50.50
2018-03-26T01:15:29.118Z,50.80
2018-03-26T01:16:29.113Z,48.80
2018-03-26T01:17:29.101Z,49.00
2018-03-26T01:18:29.111Z,50.30
2018-03-26T01:19:29.102Z,50.60
2018-03-26T01:20:29.082Z,50.80
2018-03-26T01:21:29.086Z,50.70
2018-03-26T01:22:29.055Z,49.50
2018-03-26T01:23:29.043Z,49.80
2018-03-26T01:24:29.052Z,50.30
2018-03-26T01:25:29.046Z,50.70
2018-03-26T01:26:29.028Z,51.00
2018-03-26T01:27:29.020Z,50.00
2018-03-26T01:28:29.008Z,51.00
2018-03-26T01:29:28.996Z,50.20
2018-03-26T01:30:28.988Z,50.90
2018-03-26T01:31:28.967Z,50.20
2018-03-26T01:32:28.959Z,50.50
2018-03-26T01:33:28.952Z,50.00
2018-03-26T01:34:28.943Z,50.30
2018-03-26T01:35:28.947Z,49.90
2018-03-26T01:36:28.921Z,49.20
2018-03-26T01:37:28.911Z,49.80
2018-03-26T01:38:28.911Z,51.30
2018-03-26T01:39:28.904Z,48.80
2018-03-26T01:40:28.883Z,49.30
2018-03-26T01:41:28.877Z,49.50
2018-03-26T01:42:28.876Z,49.70
2018-03-26T01:43:28.865Z,49.90
2018-03-26T01:44:28.846Z,49.30
2018-03-26T01:45:28.859Z,47.70
2018-03-26T01:46:28.824Z,48.40
2018-03-26T01:47:28.828Z,50.20
2018-03-26T01:48:28.810Z,50.90
2018-03-26T01:49:28.806Z,48.40
2018-03-26T01:50:28.787Z,49.00
2018-03-26T01:51:28.790Z,50.90
2018-03-26T01:52:28.779Z,50.10
2018-03-26T01:53:28.757Z,49.10
2018-03-26T01:54:28.750Z,49.30
2018-03-26T01:55:28.737Z,50.90
2018-03-26T01:56:28.726Z,49.20
2018-03-26T01:57:28.714Z,49.40
2018-03-26T01:58:28.708Z,49.60
2018-03-26T01:59:28.700Z,49.40
2018-03-26T02:00:28.692Z,50.10
2018-03-26T02:01:28.677Z,48.60
2018-03-26T02:02:28.670Z,47.30
2018-03-26T02:03:28.668Z,48.80
2018-03-26T02:04:28.654Z,48.90
2018-03-26T02:05:28.641Z,50.30
2018-03-26T02:06:28.633Z,48.00
2018-03-26T02:07:28.623Z,48.40
2018-03-26T02:08:28.613Z,46.80
2018-03-26T02:09:28.605Z,47.60
2018-03-26T02:10:28.595Z,47.60
2018-03-26T02:11:28.585Z,46.70
2018-03-26T02:12:28.577Z,47.30
2018-03-26T02:13:28.568Z,48.00
2018-03-26T02:14:28.558Z,46.00
2018-03-26T02:15:28.546Z,48.10
2018-03-26T02:16:28.558Z,46.80
2018-03-26T02:17:28.528Z,47.30
2018-03-26T02:18:28.520Z,47.30
2018-03-26T02:19:28.509Z,46.30
2018-03-26T02:20:28.500Z,46.00
2018-03-26T02:21:28.490Z,46.30
2018-03-26T02:22:28.481Z,47.70
2018-03-26T02:23:28.471Z,46.30
2018-03-26T02:24:28.467Z,45.50
2018-03-26T02:25:28.451Z,47.00
2018-03-26T02:26:28.443Z,45.90
2018-03-26T02:27:28.433Z,46.20
2018-03-26T02:28:28.424Z,45.10
2018-03-26T02:29:28.414Z,45.20
2018-03-26T02:30:28.403Z,46.80
2018-03-26T02:31:28.396Z,46.30
2018-03-26T02:32:28.387Z,44.30
2018-03-26T02:33:28.377Z,46.90
2018-03-26T02:34:28.367Z,45.80
2018-03-26T02:35:28.355Z,45.30
2018-03-26T02:36:28.346Z,45.80
2018-03-26T02:37:28.342Z,43.90
2018-03-26T02:38:28.326Z,43.10
2018-03-26T02:39:28.320Z,44.10
2018-03-26T02:40:28.309Z,44.50
2018-03-26T02:41:28.298Z,44.30
2018-03-26T02:42:28.289Z,44.00
2018-03-26T02:43:28.279Z,44.60
2018-03-26T02:44:28.268Z,43.80
2018-03-26T02:45:28.260Z,42.20
2018-03-26T02:46:28.252Z,44.90
2018-03-26T02:47:28.238Z,44.30
2018-03-26T02:48:28.232Z,44.60
2018-03-26T02:49:28.222Z,43.60
2018-03-26T02:50:28.211Z,44.80
2018-03-26T02:51:28.208Z,44.70
2018-03-26T02:52:28.195Z,45.00
2018-03-26T02:53:28.182Z,45.50
2018-03-26T02:54:28.175Z,44.20
2018-03-26T02:55:28.164Z,42.90
2018-03-26T02:56:28.155Z,45.50
2018-03-26T02:57:28.145Z,44.50
2018-03-26T02:58:28.135Z,47.10
2018-03-26T02:59:28.124Z,46.00
2018-03-26T03:00:28.115Z,45.90
2018-03-26T03:01:28.117Z,47.10
2018-03-26T03:02:28.095Z,45.20
2018-03-26T03:03:28.088Z,47.10
2018-03-26T03:04:28.077Z,46.00
2018-03-26T03:05:28.067Z,47.60
2018-03-26T03:06:28.057Z,47.70
2018-03-26T03:07:28.048Z,47.90
2018-03-26T03:08:28.038Z,48.40
2018-03-26T03:09:28.030Z,48.50
2018-03-26T03:10:28.018Z,48.10
2018-03-26T03:11:28.008Z,49.70
2018-03-26T03:12:28.000Z,51.10
2018-03-26T03:13:27.989Z,48.80
2018-03-26T03:14:27.980Z,51.50
2018-03-26T03:15:27.971Z,49.40
2018-03-26T03:16:27.959Z,50.40
2018-03-26T03:17:27.948Z,50.30
2018-03-26T03:18:27.941Z,49.90
2018-03-26T03:19:27.935Z,49.40
2018-03-26T03:20:27.922Z,51.10
2018-03-26T03:21:27.920Z,52.40
2018-03-26T03:22:27.901Z,51.10
2018-03-26T03:23:27.891Z,52.10
2018-03-26T03:24:27.877Z,52.50
2018-03-26T03:25:27.874Z,49.70
2018-03-26T03:26:27.866Z,52.60
2018-03-26T03:27:27.851Z,49.50
2018-03-26T03:28:27.842Z,51.30
2018-03-26T03:29:27.833Z,50.50
2018-03-26T03:30:27.823Z,48.60
2018-03-26T03:31:27.820Z,49.50
2018-03-26T03:32:27.805Z,49.60
2018-03-26T03:33:27.793Z,51.80
2018-03-26T03:34:27.786Z,50.50
2018-03-26T03:35:27.773Z,49.20
2018-03-26T03:36:27.766Z,50.60
2018-03-26T03:37:27.754Z,49.10
2018-03-26T03:38:27.746Z,48.60
2018-03-26T03:39:27.735Z,51.30
2018-03-26T03:40:27.724Z,49.60
2018-03-26T03:41:27.715Z,49.30
2018-03-26T03:42:27.703Z,49.40
2018-03-26T03:43:27.744Z,50.30
2018-03-26T03:44:27.685Z,50.40
2018-03-26T03:45:27.675Z,49.50
2018-03-26T03:46:27.666Z,48.90
2018-03-26T03:47:27.657Z,49.30
2018-03-26T03:48:27.646Z,48.90
2018-03-26T03:49:27.637Z,49.70
2018-03-26T03:50:27.627Z,47.80
2018-03-26T03:51:27.615Z,50.70
2018-03-26T03:52:27.607Z,50.40
2018-03-26T03:53:27.599Z,49.70
2018-03-26T03:54:27.587Z,50.70
2018-03-26T03:55:27.578Z,51.00
2018-03-26T03:56:27.569Z,48.80
2018-03-26T03:57:27.559Z,49.70
2018-03-26T03:58:27.547Z,49.40
2018-03-26T03:59:27.540Z,51.50
2018-03-26T04:00:27.529Z,49.00
2018-03-26T04:01:27.518Z,50.80
2018-03-26T04:02:27.509Z,49.90
2018-03-26T04:03:27.500Z,49.70
2018-03-26T04:04:27.490Z,49.70
2018-03-26T04:05:27.477Z,50.10
2018-03-26T04:06:27.472Z,48.10
2018-03-26T04:07:27.462Z,49.30
2018-03-26T04:08:27.451Z,51.20
2018-03-26T04:09:27.442Z,49.80
2018-03-26T04:10:27.431Z,51.50
2018-03-26T04:11:27.423Z,52.50
2018-03-26T04:12:27.413Z,55.20
2018-03-26T04:13:27.403Z,56.20
2018-03-26T04:14:27.393Z,52.10
2018-03-26T04:15:27.383Z,51.90
2018-03-26T04:16:27.372Z,51.00
2018-03-26T04:17:27.362Z,50.40
2018-03-26T04:18:27.354Z,48.60
2018-03-26T04:19:27.341Z,50.80
2018-03-26T04:20:27.332Z,50.60
2018-03-26T04:21:27.324Z,48.00
2018-03-26T04:22:27.311Z,48.70
2018-03-26T04:23:27.304Z,47.30
2018-03-26T04:24:27.295Z,46.90
2018-03-26T04:25:27.284Z,46.50
2018-03-26T04:26:27.323Z,46.00
2018-03-26T04:27:27.266Z,45.90
2018-03-26T04:28:27.253Z,45.60
2018-03-26T04:29:27.246Z,44.90
2018-03-26T04:30:27.233Z,46.20
2018-03-26T04:31:27.223Z,46.70
2018-03-26T04:32:27.213Z,45.70
2018-03-26T04:33:27.203Z,46.70
2018-03-26T04:34:27.193Z,46.70
2018-03-26T04:35:27.186Z,45.10
2018-03-26T04:36:27.179Z,44.80
2018-03-26T04:37:27.165Z,44.00
2018-03-26T04:38:27.153Z,44.00
2018-03-26T04:39:27.145Z,43.00
2018-03-26T04:40:27.136Z,42.50
2018-03-26T04:41:27.124Z,42.40
2018-03-26T04:42:27.116Z,44.00
2018-03-26T04:43:27.105Z,41.30
2018-03-26T04:44:27.097Z,42.70
2018-03-26T04:45:27.086Z,43.00
2018-03-26T04:46:27.078Z,40.20
2018-03-26T04:47:27.071Z,42.10
2018-03-26T04:48:27.060Z,43.20
2018-03-26T04:49:27.047Z,42.90
2018-03-26T04:50:27.087Z,41.70
2018-03-26T04:51:27.026Z,41.40
2018-03-26T04:52:27.020Z,42.50
2018-03-26T04:53:27.006Z,41.70
2018-03-26T04:54:26.996Z,41.60
2018-03-26T04:55:26.988Z,41.10
2018-03-26T04:56:26.978Z,40.60
2018-03-26T04:57:26.967Z,38.60
2018-03-26T04:58:26.960Z,39.20
2018-03-26T04:59:26.948Z,40.30
2018-03-26T05:00:26.939Z,40.00
2018-03-26T05:01:26.952Z,39.50
2018-03-26T05:02:26.917Z,39.50
2018-03-26T05:03:26.908Z,39.30
2018-03-26T05:04:26.898Z,39.20
2018-03-26T05:05:26.890Z,39.40
2018-03-26T05:06:26.879Z,36.60
2018-03-26T05:07:26.871Z,38.90
2018-03-26T05:08:26.858Z,38.10
2018-03-26T05:09:26.847Z,37.40
2018-03-26T05:10:26.840Z,36.60
2018-03-26T05:11:26.829Z,37.40
2018-03-26T05:12:26.820Z,37.00
2018-03-26T05:13:26.809Z,36.40
2018-03-26T05:14:26.811Z,35.90
2018-03-26T05:15:26.789Z,36.50
2018-03-26T05:16:26.781Z,35.50
2018-03-26T05:17:27.706Z,35.60
2018-03-26T05:18:26.760Z,35.20
2018-03-26T05:19:26.750Z,36.10
2018-03-26T05:20:26.737Z,34.50
2018-03-26T05:21:26.726Z,35.10
2018-03-26T05:22:26.721Z,36.40
2018-03-26T05:23:26.710Z,36.70
2018-03-26T05:24:26.701Z,35.30
2018-03-26T05:25:26.690Z,34.70
2018-03-26T05:26:26.683Z,34.40
2018-03-26T05:27:26.673Z,35.30
2018-03-26T05:28:26.661Z,34.30
2018-03-26T05:29:26.655Z,34.70
2018-03-26T05:30:26.641Z,33.20
2018-03-26T05:31:26.630Z,34.20
2018-03-26T05:32:26.624Z,34.30
2018-03-26T05:33:26.613Z,32.70
2018-03-26T05:34:26.603Z,32.70
2018-03-26T05:35:26.590Z,32.70
2018-03-26T05:36:26.587Z,31.00
2018-03-26T05:37:26.570Z,33.80
2018-03-26T05:38:26.564Z,32.30
2018-03-26T05:39:26.561Z,32.20
2018-03-26T05:40:26.574Z,32.70
2018-03-26T05:41:26.532Z,32.40
2018-03-26T05:42:26.523Z,32.90
2018-03-26T05:43:26.509Z,31.40
2018-03-26T05:44:26.505Z,31.70
2018-03-26T05:45:26.493Z,30.90
2018-03-26T05:46:26.483Z,30.60
2018-03-26T05:47:26.474Z,30.80
2018-03-26T05:48:26.464Z,30.70
2018-03-26T05:49:26.453Z,30.10
2018-03-26T05:50:26.438Z,31.40
2018-03-26T05:51:26.430Z,30.80
2018-03-26T05:52:26.428Z,29.50
2018-03-26T05:53:26.415Z,29.40
2018-03-26T05:54:26.407Z,30.40
2018-03-26T05:55:26.393Z,30.20
2018-03-26T05:56:26.387Z,29.20
2018-03-26T05:57:26.374Z,29.60
2018-03-26T05:58:26.365Z,27.60
2018-03-26T05:59:26.356Z,27.80
2018-03-26T06:00:26.347Z,28.50
2018-03-26T06:01:26.333Z,27.30
2018-03-26T06:02:26.324Z,26.80
2018-03-26T06:03:26.314Z,26.30
2018-03-26T06:04:26.307Z,25.90
2018-03-26T06:05:26.294Z,26.70
2018-03-26T06:06:26.287Z,25.90
2018-03-26T06:07:26.274Z,26.00
2018-03-26T06:08:26.269Z,25.20
2018-03-26T06:09:26.257Z,25.20
2018-03-26T06:10:26.247Z,26.00
2018-03-26T06:11:26.262Z,25.00
2018-03-26T06:12:26.233Z,26.30
2018-03-26T06:13:26.216Z,25.60
2018-03-26T06:14:26.208Z,25.10
2018-03-26T06:15:26.197Z,24.80
2018-03-26T06:16:26.190Z,25.10
2018-03-26T06:17:26.180Z,23.60
2018-03-26T06:18:26.164Z,23.90
2018-03-26T06:19:26.157Z,25.60
2018-03-26T06:20:26.148Z,23.80
2018-03-26T06:21:26.137Z,24.70
2018-03-26T06:22:26.132Z,26.40
2018-03-26T06:23:26.119Z,24.80
2018-03-26T06:24:26.110Z,24.90
2018-03-26T06:25:26.101Z,25.50
2018-03-26T06:26:26.088Z,25.20
2018-03-26T06:27:26.078Z,24.90
2018-03-26T06:28:26.072Z,26.20
2018-03-26T06:29:26.060Z,25.20
2018-03-26T06:30:26.061Z,25.50
2018-03-26T06:31:26.039Z,25.50
2018-03-26T06:32:26.033Z,25.30
2018-03-26T06:33:26.021Z,26.50
2018-03-26T06:34:26.018Z,25.00
2018-03-26T06:35:26.006Z,25.90
2018-03-26T06:36:25.991Z,26.00
2018-03-26T06:37:25.982Z,24.70
2018-03-26T06:38:25.978Z,25.30
2018-03-26T06:39:25.961Z,25.20
2018-03-26T06:40:25.955Z,26.90
2018-03-26T06:41:25.943Z,25.90
2018-03-26T06:42:25.934Z,25.30
2018-03-26T06:43:25.924Z,24.40
2018-03-26T06:44:25.915Z,25.90
2018-03-26T06:45:25.903Z,25.20
2018-03-26T06:46:25.896Z,25.60
2018-03-26T06:47:25.883Z,26.10
2018-03-26T06:48:25.880Z,25.30
2018-03-26T06:49:25.867Z,25.40
2018-03-26T06:50:25.858Z,24.30
2018-03-26T06:51:25.848Z,24.20
2018-03-26T06:52:25.837Z,24.50
2018-03-26T06:53:25.826Z,23.20
2018-03-26T06:54:25.824Z,22.70
2018-03-26T06:55:25.812Z,22.20
2018-03-26T06:56:25.798Z,22.40
2018-03-26T06:57:26.721Z,22.40
2018-03-26T06:58:25.776Z,22.20
2018-03-26T06:59:25.787Z,23.00
2018-03-26T07:00:25.760Z,23.40
2018-03-26T07:01:25.754Z,24.10
2018-03-26T07:02:25.741Z,22.10
2018-03-26T07:03:25.738Z,23.20
2018-03-26T07:04:25.722Z,22.40
2018-03-26T07:05:25.711Z,22.30
2018-03-26T07:06:25.703Z,23.90
2018-03-26T07:07:25.693Z,23.30
2018-03-26T07:08:25.687Z,24.30
2018-03-26T07:09:25.678Z,23.20
2018-03-26T07:10:26.679Z,23.60
2018-03-26T07:11:25.656Z,23.10
2018-03-26T07:12:25.696Z,23.20
2018-03-26T07:13:25.637Z,24.10
2018-03-26T07:14:25.630Z,23.10
2018-03-26T07:15:25.619Z,23.70
2018-03-26T07:16:25.611Z,24.20
2018-03-26T07:17:25.600Z,24.80
2018-03-26T07:18:25.591Z,24.90
2018-03-26T07:19:25.604Z,24.00
2018-03-26T07:20:25.573Z,23.30
2018-03-26T07:21:25.563Z,24.20
2018-03-26T07:22:25.556Z,24.60
2018-03-26T07:23:25.548Z,25.20
2018-03-26T07:24:25.555Z,24.50
2018-03-26T07:25:25.527Z,25.50
2018-03-26T07:26:25.518Z,24.70
2018-03-26T07:27:25.511Z,26.30
2018-03-26T07:28:25.506Z,25.90
2018-03-26T07:29:25.533Z,24.90
2018-03-26T07:30:25.497Z,26.20
2018-03-26T07:31:25.479Z,25.00
2018-03-26T07:32:25.470Z,25.60
2018-03-26T07:33:25.459Z,26.40
2018-03-26T07:34:25.452Z,26.20
2018-03-26T07:35:25.447Z,26.20
2018-03-26T07:36:25.438Z,26.70
2018-03-26T07:37:25.428Z,26.00
2018-03-26T07:38:25.423Z,26.10
2018-03-26T07:39:25.436Z,26.80
2018-03-26T07:40:25.399Z,25.90
2018-03-26T07:41:25.394Z,26.30
2018-03-26T07:42:25.404Z,27.10
2018-03-26T07:43:25.406Z,26.70
2018-03-26T07:44:25.370Z,27.10
2018-03-26T07:45:25.362Z,26.70
2018-03-26T07:46:25.353Z,26.20
2018-03-26T07:47:25.377Z,27.40
2018-03-26T07:48:25.341Z,27.90
2018-03-26T07:49:25.333Z,26.90
2018-03-26T07:50:25.323Z,26.80
2018-03-26T07:51:25.312Z,25.00
2018-03-26T07:52:25.306Z,25.80
2018-03-26T07:53:25.302Z,25.70
2018-03-26T07:54:25.285Z,24.70
2018-03-26T07:55:25.284Z,24.60
2018-03-26T07:56:25.275Z,23.40
2018-03-26T07:57:25.268Z,23.30
2018-03-26T07:58:25.262Z,23.40
2018-03-26T07:59:25.254Z,22.90
2018-03-26T08:00:25.825Z,22.30
2018-03-26T08:01:25.239Z,22.50
2018-03-26T08:02:25.227Z,22.30
2018-03-26T08:03:25.966Z,22.50
2018-03-26T08:04:25.214Z,22.60
2018-03-26T08:05:25.211Z,22.00
2018-03-26T08:06:25.212Z,22.00
2018-03-26T08:07:25.192Z,22.20
2018-03-26T08:08:25.185Z,21.20
2018-03-26T08:09:25.179Z,20.70
2018-03-26T08:10:25.172Z,20.30
2018-03-26T08:11:25.179Z,19.60
2018-03-26T08:12:25.159Z,20.70
2018-03-26T08:13:25.150Z,21.00
2018-03-26T08:14:25.139Z,20.60
2018-03-26T08:15:25.131Z,19.40
2018-03-26T08:16:25.128Z,19.00
2018-03-26T08:17:25.125Z,19.10
2018-03-26T08:18:25.113Z,19.20
2018-03-26T08:19:25.103Z,18.50
2018-03-26T08:20:25.100Z,18.10
2018-03-26T08:21:25.087Z,18.00
2018-03-26T08:22:25.078Z,18.30
2018-03-26T08:23:25.080Z,17.00
2018-03-26T08:24:25.071Z,17.00
2018-03-26T08:25:25.063Z,18.00
2018-03-26T08:26:25.060Z,17.40
2018-03-26T08:27:25.044Z,17.70
2018-03-26T08:28:25.039Z,17.70
2018-03-26T08:29:25.035Z,17.10
2018-03-26T08:30:25.028Z,17.90
2018-03-26T08:31:25.023Z,17.20
2018-03-26T08:32:25.015Z,17.10
2018-03-26T08:33:25.007Z,16.70
2018-03-26T08:34:25.018Z,15.60
2018-03-26T08:35:25.004Z,17.10
2018-03-26T08:36:25.015Z,16.90
2018-03-26T08:37:24.984Z,15.90
2018-03-26T08:38:24.981Z,16.50
2018-03-26T08:39:24.977Z,15.70
2018-03-26T08:40:24.970Z,16.00
2018-03-26T08:41:24.958Z,15.60
2018-03-26T08:42:25.029Z,15.60
2018-03-26T08:43:24.951Z,15.80
2018-03-26T08:44:24.951Z,16.00
2018-03-26T08:45:24.948Z,15.20
2018-03-26T08:46:24.944Z,15.30
2018-03-26T08:47:24.938Z,14.70
2018-03-26T08:48:24.934Z,14.80
2018-03-26T08:49:24.962Z,14.40
2018-03-26T08:50:24.962Z,15.70
2018-03-26T08:51:24.933Z,15.40
2018-03-26T08:52:24.926Z,16.20
2018-03-26T08:53:24.922Z,16.40
2018-03-26T08:54:24.920Z,15.70
2018-03-26T08:55:24.922Z,16.10
2018-03-26T08:56:24.919Z,16.50
2018-03-26T08:57:24.920Z,15.60
2018-03-26T08:58:24.915Z,16.10
2018-03-26T08:59:24.920Z,15.50
2018-03-26T09:00:24.920Z,15.70
2018-03-26T09:01:24.915Z,16.80
2018-03-26T09:02:24.917Z,16.10
2018-03-26T09:03:24.917Z,16.30
2018-03-26T09:04:24.920Z,15.70
2018-03-26T09:05:24.918Z,15.50
2018-03-26T09:06:24.920Z,14.90
2018-03-26T09:07:24.931Z,15.30
2018-03-26T09:08:24.925Z,14.40
2018-03-26T09:09:24.928Z,15.40
2018-03-26T09:10:24.927Z,14.90
2018-03-26T09:11:24.928Z,14.10
2018-03-26T09:12:24.937Z,14.10
2018-03-26T09:13:24.932Z,13.80
2018-03-26T09:14:24.932Z,14.10
2018-03-26T09:15:24.935Z,13.90
2018-03-26T09:16:24.947Z,13.10
2018-03-26T09:17:24.946Z,13.70
2018-03-26T09:18:24.947Z,13.40
2018-03-26T09:19:24.952Z,12.30
2018-03-26T09:20:24.952Z,12.10
2018-03-26T09:21:24.950Z,11.90
2018-03-26T09:22:24.961Z,11.60
2018-03-26T09:23:24.959Z,11.40
2018-03-26T09:24:24.965Z,11.10
2018-03-26T09:25:24.967Z,9.90
2018-03-26T09:26:24.972Z,10.30
2018-03-26T09:27:24.976Z,8.80
2018-03-26T09:28:24.979Z,9.30
2018-03-26T09:29:24.982Z,9.20
2018-03-26T09:30:24.987Z,10.00
2018-03-26T09:31:24.992Z,9.60
2018-03-26T09:32:25.030Z,9.50
2018-03-26T09:33:25.001Z,9.30
2018-03-26T09:34:25.003Z,9.20
2018-03-26T09:35:25.042Z,9.10
2018-03-26T09:36:25.012Z,9.20
2018-03-26T09:37:25.017Z,8.90
2018-03-26T09:38:25.023Z,9.30
2018-03-26T09:39:25.673Z,9.10
2018-03-26T09:40:25.038Z,9.30
2018-03-26T09:41:25.041Z,8.80
2018-03-26T09:42:25.042Z,8.70
2018-03-26T09:43:25.051Z,9.10
2018-03-26T09:44:25.059Z,9.00
2018-03-26T09:45:25.063Z,8.50
2018-03-26T09:46:25.069Z,7.90
2018-03-26T09:47:25.074Z,8.50
2018-03-26T09:48:25.078Z,8.30
2018-03-26T09:49:25.109Z,8.40
2018-03-26T09:50:25.090Z,8.40
2018-03-26T09:51:25.097Z,7.60
2018-03-26T09:52:25.107Z,8.00
2018-03-26T09:53:25.148Z,8.00
2018-03-26T09:54:25.114Z,7.30
2018-03-26T09:55:25.118Z,7.80
2018-03-26T09:56:25.162Z,7.50
2018-03-26T09:57:25.138Z,7.30
2018-03-26T09:58:25.142Z,7.50
2018-03-26T09:59:25.152Z,7.10
2018-03-26T10:00:25.152Z,7.50
2018-03-26T10:01:25.156Z,7.70
2018-03-26T10:02:25.165Z,7.20
2018-03-26T10:03:25.403Z,7.50
2018-03-26T10:04:25.180Z,7.70
2018-03-26T10:05:25.184Z,7.90
2018-03-26T10:06:25.196Z,7.50
2018-03-26T10:07:25.197Z,7.80
2018-03-26T10:08:25.752Z,8.10
2018-03-26T10:09:25.235Z,7.10
2018-03-26T10:10:25.218Z,7.60
2018-03-26T10:11:25.225Z,7.60
2018-03-26T10:12:25.232Z,7.40
2018-03-26T10:13:25.236Z,7.30
2018-03-26T10:14:25.243Z,7.40
2018-03-26T10:15:25.250Z,7.10
2018-03-26T10:16:25.259Z,7.80
2018-03-26T10:17:25.264Z,7.40
2018-03-26T10:18:25.275Z,6.90
2018-03-26T10:19:25.285Z,6.60
2018-03-26T10:20:25.283Z,7.70
2018-03-26T10:21:25.288Z,7.80
2018-03-26T10:22:25.302Z,7.20
2018-03-26T10:23:25.308Z,7.60
2018-03-26T10:24:25.314Z,7.60
2018-03-26T10:25:25.321Z,7.70
2018-03-26T10:26:25.327Z,7.80
2018-03-26T10:27:25.337Z,7.50
2018-03-26T10:28:25.350Z,7.30
2018-03-26T10:29:25.347Z,7.40
2018-03-26T10:30:25.357Z,7.40
2018-03-26T10:31:25.367Z,8.00
2018-03-26T10:32:25.371Z,8.20
2018-03-26T10:33:25.380Z,7.00
2018-03-26T10:34:25.383Z,7.30
2018-03-26T10:35:25.395Z,7.40
2018-03-26T10:36:25.406Z,7.70
2018-03-26T10:37:25.409Z,7.40
2018-03-26T10:38:25.415Z,7.60
2018-03-26T10:39:25.428Z,7.60
2018-03-26T10:40:25.431Z,7.70
2018-03-26T10:41:25.439Z,7.10
2018-03-26T10:42:25.444Z,7.00
2018-03-26T10:43:25.452Z,7.30
2018-03-26T10:44:25.457Z,7.60
2018-03-26T10:45:25.464Z,7.50
2018-03-26T10:46:25.473Z,7.10
2018-03-26T10:47:25.479Z,7.30
2018-03-26T10:48:25.485Z,7.10
2018-03-26T10:49:25.498Z,7.10
2018-03-26T10:50:25.499Z,6.80
2018-03-26T10:51:25.509Z,6.50
2018-03-26T10:52:25.513Z,6.70
2018-03-26T10:53:25.523Z,7.30
2018-03-26T10:54:25.526Z,6.30
2018-03-26T10:55:25.533Z,7.00
2018-03-26T10:56:25.544Z,7.10
2018-03-26T10:57:25.546Z,6.90
2018-03-26T10:58:25.554Z,7.20
2018-03-26T10:59:25.560Z,6.60
2018-03-26T11:00:25.613Z,6.60
2018-03-26T11:01:25.574Z,6.70
2018-03-26T11:02:25.583Z,6.20
2018-03-26T11:03:25.592Z,7.00
2018-03-26T11:04:25.609Z,6.80
2018-03-26T11:05:25.598Z,6.80
2018-03-26T11:06:25.605Z,6.20
2018-03-26T11:07:25.620Z,6.60
2018-03-26T11:08:25.623Z,6.20
2018-03-26T11:09:25.648Z,6.40
2018-03-26T11:10:25.631Z,6.60
2018-03-26T11:11:25.638Z,5.90
2018-03-26T11:12:25.645Z,6.40
2018-03-26T11:13:25.652Z,6.30
2018-03-26T11:14:25.658Z,6.30
2018-03-26T11:15:25.662Z,6.60
2018-03-26T11:16:25.669Z,6.40
2018-03-26T11:17:25.675Z,6.30
2018-03-26T11:18:25.681Z,6.40
2018-03-26T11:19:25.718Z,6.50
2018-03-26T11:20:25.695Z,6.60
2018-03-26T11:21:25.703Z,6.50
2018-03-26T11:22:25.708Z,6.20
2018-03-26T11:23:25.714Z,6.10
2018-03-26T11:24:25.720Z,6.50
2018-03-26T11:25:25.725Z,6.20
2018-03-26T11:26:25.736Z,6.40
2018-03-26T11:27:25.865Z,6.30
2018-03-26T11:28:25.746Z,6.60
2018-03-26T11:29:25.786Z,6.20
2018-03-26T11:30:25.761Z,5.90
2018-03-26T11:31:25.764Z,6.20
2018-03-26T11:32:25.768Z,6.20
2018-03-26T11:33:25.774Z,6.20
2018-03-26T11:34:25.781Z,6.30
2018-03-26T11:35:25.789Z,6.10
2018-03-26T11:36:25.865Z,6.00
2018-03-26T11:37:25.802Z,6.10
2018-03-26T11:38:25.805Z,6.00
2018-03-26T11:39:25.813Z,6.20
2018-03-26T11:40:25.820Z,5.80
2018-03-26T11:41:25.831Z,5.90
2018-03-26T11:42:25.837Z,6.30
2018-03-26T11:43:25.838Z,6.30
2018-03-26T11:44:25.841Z,6.00
2018-03-26T11:45:25.854Z,6.30
2018-03-26T11:46:25.852Z,6.00
2018-03-26T11:47:25.874Z,6.20
2018-03-26T11:48:25.869Z,6.30
2018-03-26T11:49:25.872Z,5.70
2018-03-26T11:50:25.884Z,6.00
2018-03-26T11:51:25.882Z,6.00
2018-03-26T11:52:25.887Z,5.80
2018-03-26T11:53:25.893Z,5.50
2018-03-26T11:54:25.904Z,5.60
2018-03-26T11:55:25.904Z,5.70
2018-03-26T11:56:25.910Z,5.70
2018-03-26T11:57:25.918Z,6.00
2018-03-26T11:58:25.918Z,6.50
2018-03-26T11:59:25.923Z,6.40
2018-03-26T12:00:25.929Z,5.70
2018-03-26T12:01:25.939Z,6.50
2018-03-26T12:02:25.960Z,5.60
2018-03-26T12:03:25.943Z,6.10
2018-03-26T12:04:25.949Z,6.20
2018-03-26T12:05:25.954Z,6.20
2018-03-26T12:06:25.961Z,5.80
2018-03-26T12:07:25.970Z,6.10
2018-03-26T12:08:25.981Z,6.00
2018-03-26T12:09:25.976Z,6.20
2018-03-26T12:10:25.980Z,6.60
2018-03-26T12:11:25.988Z,6.50
2018-03-26T12:12:25.988Z,8.10
2018-03-26T12:13:25.994Z,9.60
2018-03-26T12:14:26.000Z,9.10
2018-03-26T12:15:25.998Z,7.70
2018-03-26T12:16:26.007Z,8.70
2018-03-26T12:17:26.009Z,8.60
2018-03-26T12:18:26.014Z,7.00
2018-03-26T12:19:26.019Z,6.30
2018-03-26T12:20:26.025Z,6.70
2018-03-26T12:21:26.025Z,6.60
2018-03-26T12:22:26.028Z,6.50
2018-03-26T12:23:26.033Z,7.00
2018-03-26T12:24:26.038Z,6.60
2018-03-26T12:25:26.040Z,6.20
2018-03-26T12:26:26.046Z,6.10
2018-03-26T12:27:26.053Z,6.60
2018-03-26T12:28:26.053Z,5.80
2018-03-26T12:29:26.056Z,6.00
2018-03-26T12:30:26.064Z,6.00
2018-03-26T12:31:26.064Z,6.50
2018-03-26T12:32:26.111Z,6.50
2018-03-26T12:33:26.073Z,6.90
2018-03-26T12:34:26.076Z,6.10
2018-03-26T12:35:26.080Z,6.60
2018-03-26T12:36:26.085Z,6.10
2018-03-26T12:37:26.087Z,6.00
2018-03-26T12:38:26.093Z,5.80
2018-03-26T12:39:26.092Z,6.10
2018-03-26T12:40:26.101Z,6.00
2018-03-26T12:41:26.109Z,5.70
2018-03-26T12:42:26.109Z,6.40
2018-03-26T12:43:26.113Z,5.90
2018-03-26T12:44:26.119Z,5.30
2018-03-26T12:45:26.121Z,5.80
2018-03-26T12:46:26.355Z,5.60
2018-03-26T12:47:26.130Z,5.70
2018-03-26T12:48:26.130Z,5.40
2018-03-26T12:49:26.142Z,5.70
2018-03-26T12:50:26.145Z,5.50
2018-03-26T12:51:26.149Z,5.10
2018-03-26T12:52:26.151Z,5.60
2018-03-26T12:53:26.152Z,5.60
2018-03-26T12:54:26.162Z,5.40
2018-03-26T12:55:26.162Z,5.90
2018-03-26T12:56:26.170Z,5.40
2018-03-26T12:57:26.171Z,6.10
2018-03-26T12:58:26.177Z,5.80
2018-03-26T12:59:26.181Z,5.80